sensor_id;sensor_type;location;lat;lon;timestamp;P1;durP1;ratioP1;P2;durP2;ratioP2
7571;SDS011;3827;49.928;8.548;2023-03-01T00:01:39;13.00;;;11.80;;
7571;SDS011;3827;49.928;8.548;2023-03-01T00:04:06;12.57;;;11.48;;
7571;SDS011;3827;49.928;8.548;2023-03-01T00:06:33;12.48;;;11.38;;
7571;SDS011;3827;49.928;8.548;2023-03-01T00:09:01;13.00;;;11.70;;
7571;SDS011;3827;49.928;8.548;2023-03-01T00:11:28;12.07;;;11.07;;
7571;SDS011;3827;49.928;8.548;2023-03-01T00:13:57;13.18;;;12.07;;
7571;SDS011;3827;49.928;8.548;2023-03-01T00:16:27;12.88;;;11.65;;
7571;SDS011;3827;49.928;8.548;2023-03-01T00:18:56;13.33;;;12.13;;
7571;SDS011;3827;49.928;8.548;2023-03-01T00:21:23;13.15;;;12.02;;
7571;SDS011;3827;49.928;8.548;2023-03-01T00:23:51;13.13;;;12.02;;
7571;SDS011;3827;49.928;8.548;2023-03-01T00:26:21;13.05;;;11.95;;
7571;SDS011;3827;49.928;8.548;2023-03-01T00:28:49;12.43;;;11.32;;
7571;SDS011;3827;49.928;8.548;2023-03-01T00:31:16;13.82;;;12.57;;
7571;SDS011;3827;49.928;8.548;2023-03-01T00:33:45;12.80;;;11.70;;
7571;SDS011;3827;49.928;8.548;2023-03-01T00:36:13;13.37;;;12.17;;
7571;SDS011;3827;49.928;8.548;2023-03-01T00:38:42;13.02;;;11.85;;
7571;SDS011;3827;49.928;8.548;2023-03-01T00:41:10;12.73;;;11.63;;
7571;SDS011;3827;49.928;8.548;2023-03-01T00:43:40;13.02;;;11.85;;
7571;SDS011;3827;49.928;8.548;2023-03-01T00:46:08;12.90;;;11.70;;
7571;SDS011;3827;49.928;8.548;2023-03-01T00:48:37;13.82;;;12.63;;
7571;SDS011;3827;49.928;8.548;2023-03-01T00:51:05;13.65;;;12.45;;
7571;SDS011;3827;49.928;8.548;2023-03-01T00:53:33;13.35;;;12.15;;
7571;SDS011;3827;49.928;8.548;2023-03-01T00:56:00;13.15;;;12.05;;
7571;SDS011;3827;49.928;8.548;2023-03-01T00:58:27;13.20;;;12.00;;
7571;SDS011;3827;49.928;8.548;2023-03-01T01:00:55;14.30;;;12.90;;
7571;SDS011;3827;49.928;8.548;2023-03-01T01:03:22;14.63;;;13.43;;
7571;SDS011;3827;49.928;8.548;2023-03-01T01:05:49;13.57;;;12.38;;
7571;SDS011;3827;49.928;8.548;2023-03-01T01:08:16;14.23;;;12.93;;
7571;SDS011;3827;49.928;8.548;2023-03-01T01:10:43;14.18;;;12.98;;
7571;SDS011;3827;49.928;8.548;2023-03-01T01:13:11;14.40;;;12.93;;
7571;SDS011;3827;49.928;8.548;2023-03-01T01:15:38;13.77;;;12.65;;
7571;SDS011;3827;49.928;8.548;2023-03-01T01:18:06;13.82;;;12.63;;
7571;SDS011;3827;49.928;8.548;2023-03-01T01:20:35;13.95;;;12.75;;
7571;SDS011;3827;49.928;8.548;2023-03-01T01:23:04;13.57;;;12.38;;
7571;SDS011;3827;49.928;8.548;2023-03-01T01:25:33;13.90;;;12.70;;
7571;SDS011;3827;49.928;8.548;2023-03-01T01:28:01;14.30;;;13.02;;
7571;SDS011;3827;49.928;8.548;2023-03-01T01:30:27;13.90;;;12.60;;
7571;SDS011;3827;49.928;8.548;2023-03-01T01:32:54;14.60;;;13.27;;
7571;SDS011;3827;49.928;8.548;2023-03-01T01:35:22;13.82;;;12.70;;
7571;SDS011;3827;49.928;8.548;2023-03-01T01:37:49;13.60;;;12.50;;
7571;SDS011;3827;49.928;8.548;2023-03-01T01:40:16;14.15;;;12.95;;
7571;SDS011;3827;49.928;8.548;2023-03-01T01:42:43;13.65;;;12.52;;
7571;SDS011;3827;49.928;8.548;2023-03-01T01:45:24;14.27;;;13.03;;
7571;SDS011;3827;49.928;8.548;2023-03-01T01:47:54;13.87;;;12.77;;
7571;SDS011;3827;49.928;8.548;2023-03-01T01:50:26;14.43;;;13.18;;
7571;SDS011;3827;49.928;8.548;2023-03-01T01:53:04;14.98;;;13.57;;
7571;SDS011;3827;49.928;8.548;2023-03-01T01:55:34;14.57;;;13.27;;
7571;SDS011;3827;49.928;8.548;2023-03-01T01:58:04;13.85;;;12.55;;
7571;SDS011;3827;49.928;8.548;2023-03-01T02:00:33;13.85;;;12.65;;
7571;SDS011;3827;49.928;8.548;2023-03-01T02:03:00;13.52;;;12.43;;
7571;SDS011;3827;49.928;8.548;2023-03-01T02:05:34;14.60;;;13.40;;
7571;SDS011;3827;49.928;8.548;2023-03-01T02:08:08;13.73;;;12.52;;
7571;SDS011;3827;49.928;8.548;2023-03-01T02:10:37;15.77;;;14.38;;
7571;SDS011;3827;49.928;8.548;2023-03-01T02:13:05;14.32;;;13.13;;
7571;SDS011;3827;49.928;8.548;2023-03-01T02:15:33;14.07;;;12.93;;
7571;SDS011;3827;49.928;8.548;2023-03-01T02:18:01;13.80;;;12.70;;
7571;SDS011;3827;49.928;8.548;2023-03-01T02:20:31;13.73;;;12.53;;
7571;SDS011;3827;49.928;8.548;2023-03-01T02:23:05;14.85;;;13.45;;
7571;SDS011;3827;49.928;8.548;2023-03-01T02:25:35;14.30;;;13.10;;
7571;SDS011;3827;49.928;8.548;2023-03-01T02:28:18;14.13;;;12.93;;
7571;SDS011;3827;49.928;8.548;2023-03-01T02:30:49;14.30;;;13.00;;
7571;SDS011;3827;49.928;8.548;2023-03-01T02:33:35;14.23;;;13.00;;
7571;SDS011;3827;49.928;8.548;2023-03-01T02:36:03;15.07;;;13.70;;
7571;SDS011;3827;49.928;8.548;2023-03-01T02:38:34;13.57;;;12.48;;
7571;SDS011;3827;49.928;8.548;2023-03-01T02:41:01;15.57;;;14.17;;
7571;SDS011;3827;49.928;8.548;2023-03-01T02:43:31;14.65;;;13.35;;
7571;SDS011;3827;49.928;8.548;2023-03-01T02:46:04;14.07;;;12.65;;
7571;SDS011;3827;49.928;8.548;2023-03-01T02:48:39;14.30;;;13.07;;
7571;SDS011;3827;49.928;8.548;2023-03-01T02:51:10;15.23;;;13.82;;
7571;SDS011;3827;49.928;8.548;2023-03-01T02:53:53;14.95;;;13.65;;
7571;SDS011;3827;49.928;8.548;2023-03-01T02:56:25;15.65;;;14.25;;
7571;SDS011;3827;49.928;8.548;2023-03-01T02:58:53;14.20;;;12.93;;
7571;SDS011;3827;49.928;8.548;2023-03-01T03:01:25;14.10;;;12.90;;
7571;SDS011;3827;49.928;8.548;2023-03-01T03:04:01;14.53;;;13.30;;
7571;SDS011;3827;49.928;8.548;2023-03-01T03:06:29;14.10;;;12.90;;
7571;SDS011;3827;49.928;8.548;2023-03-01T03:08:55;14.27;;;13.07;;
7571;SDS011;3827;49.928;8.548;2023-03-01T03:11:22;14.77;;;13.50;;
7571;SDS011;3827;49.928;8.548;2023-03-01T03:13:49;14.98;;;13.65;;
7571;SDS011;3827;49.928;8.548;2023-03-01T03:16:18;14.90;;;13.70;;
7571;SDS011;3827;49.928;8.548;2023-03-01T03:18:45;15.05;;;13.70;;
7571;SDS011;3827;49.928;8.548;2023-03-01T03:21:12;14.13;;;12.93;;
7571;SDS011;3827;49.928;8.548;2023-03-01T03:23:39;14.15;;;12.82;;
7571;SDS011;3827;49.928;8.548;2023-03-01T03:26:06;13.80;;;12.60;;
7571;SDS011;3827;49.928;8.548;2023-03-01T03:28:33;14.23;;;12.93;;
7571;SDS011;3827;49.928;8.548;2023-03-01T03:31:05;15.13;;;13.82;;
7571;SDS011;3827;49.928;8.548;2023-03-01T03:33:33;14.80;;;13.60;;
7571;SDS011;3827;49.928;8.548;2023-03-01T03:36:00;14.85;;;13.63;;
7571;SDS011;3827;49.928;8.548;2023-03-01T03:38:27;14.77;;;13.57;;
7571;SDS011;3827;49.928;8.548;2023-03-01T03:40:59;15.07;;;13.77;;
7571;SDS011;3827;49.928;8.548;2023-03-01T03:43:27;15.63;;;14.25;;
7571;SDS011;3827;49.928;8.548;2023-03-01T03:45:54;14.80;;;13.60;;
7571;SDS011;3827;49.928;8.548;2023-03-01T03:48:22;14.93;;;13.63;;
7571;SDS011;3827;49.928;8.548;2023-03-01T03:50:51;15.05;;;13.85;;
7571;SDS011;3827;49.928;8.548;2023-03-01T03:53:20;14.85;;;13.55;;
7571;SDS011;3827;49.928;8.548;2023-03-01T03:55:47;14.98;;;13.77;;
7571;SDS011;3827;49.928;8.548;2023-03-01T03:58:16;15.33;;;13.93;;
7571;SDS011;3827;49.928;8.548;2023-03-01T04:00:44;14.63;;;13.43;;
7571;SDS011;3827;49.928;8.548;2023-03-01T04:03:13;14.95;;;13.65;;
7571;SDS011;3827;49.928;8.548;2023-03-01T04:05:41;14.73;;;13.48;;
7571;SDS011;3827;49.928;8.548;2023-03-01T04:08:09;14.98;;;13.68;;
7571;SDS011;3827;49.928;8.548;2023-03-01T04:10:37;15.50;;;14.07;;
7571;SDS011;3827;49.928;8.548;2023-03-01T04:13:06;15.50;;;14.10;;
7571;SDS011;3827;49.928;8.548;2023-03-01T04:15:35;16.02;;;14.63;;
7571;SDS011;3827;49.928;8.548;2023-03-01T04:18:02;15.02;;;13.73;;
7571;SDS011;3827;49.928;8.548;2023-03-01T04:20:30;15.15;;;13.90;;
7571;SDS011;3827;49.928;8.548;2023-03-01T04:23:00;16.37;;;14.97;;
7571;SDS011;3827;49.928;8.548;2023-03-01T04:25:36;16.48;;;15.07;;
7571;SDS011;3827;49.928;8.548;2023-03-01T04:28:04;15.68;;;14.38;;
7571;SDS011;3827;49.928;8.548;2023-03-01T04:30:31;16.58;;;15.07;;
7571;SDS011;3827;49.928;8.548;2023-03-01T04:33:00;15.70;;;14.40;;
7571;SDS011;3827;49.928;8.548;2023-03-01T04:35:28;16.70;;;15.17;;
7571;SDS011;3827;49.928;8.548;2023-03-01T04:37:55;15.80;;;14.50;;
7571;SDS011;3827;49.928;8.548;2023-03-01T04:40:22;17.20;;;15.70;;
7571;SDS011;3827;49.928;8.548;2023-03-01T04:42:50;16.52;;;15.07;;
7571;SDS011;3827;49.928;8.548;2023-03-01T04:45:17;16.42;;;14.93;;
7571;SDS011;3827;49.928;8.548;2023-03-01T04:47:45;15.85;;;14.50;;
7571;SDS011;3827;49.928;8.548;2023-03-01T04:50:13;16.15;;;14.65;;
7571;SDS011;3827;49.928;8.548;2023-03-01T04:52:41;16.30;;;14.88;;
7571;SDS011;3827;49.928;8.548;2023-03-01T04:55:09;15.60;;;14.30;;
7571;SDS011;3827;49.928;8.548;2023-03-01T04:57:36;16.88;;;15.38;;
7571;SDS011;3827;49.928;8.548;2023-03-01T05:00:05;16.73;;;15.33;;
7571;SDS011;3827;49.928;8.548;2023-03-01T05:02:45;16.90;;;15.32;;
7571;SDS011;3827;49.928;8.548;2023-03-01T05:05:13;16.88;;;15.38;;
7571;SDS011;3827;49.928;8.548;2023-03-01T05:07:40;16.52;;;15.02;;
7571;SDS011;3827;49.928;8.548;2023-03-01T05:10:08;17.63;;;16.10;;
7571;SDS011;3827;49.928;8.548;2023-03-01T05:12:36;17.60;;;16.10;;
7571;SDS011;3827;49.928;8.548;2023-03-01T05:15:05;17.83;;;16.30;;
7571;SDS011;3827;49.928;8.548;2023-03-01T05:17:33;18.25;;;16.55;;
7571;SDS011;3827;49.928;8.548;2023-03-01T05:20:00;17.30;;;15.80;;
7571;SDS011;3827;49.928;8.548;2023-03-01T05:22:30;17.77;;;16.23;;
7571;SDS011;3827;49.928;8.548;2023-03-01T05:24:57;17.50;;;15.90;;
7571;SDS011;3827;49.928;8.548;2023-03-01T05:27:24;18.00;;;16.40;;
7571;SDS011;3827;49.928;8.548;2023-03-01T05:29:51;17.23;;;15.77;;
7571;SDS011;3827;49.928;8.548;2023-03-01T05:32:19;17.60;;;15.93;;
7571;SDS011;3827;49.928;8.548;2023-03-01T05:34:46;17.50;;;16.00;;
7571;SDS011;3827;49.928;8.548;2023-03-01T05:37:13;17.80;;;16.10;;
7571;SDS011;3827;49.928;8.548;2023-03-01T05:39:40;16.85;;;15.43;;
7571;SDS011;3827;49.928;8.548;2023-03-01T05:42:09;16.50;;;15.10;;
7571;SDS011;3827;49.928;8.548;2023-03-01T05:44:37;17.25;;;15.73;;
7571;SDS011;3827;49.928;8.548;2023-03-01T05:47:04;17.40;;;15.85;;
7571;SDS011;3827;49.928;8.548;2023-03-01T05:49:32;16.98;;;15.57;;
7571;SDS011;3827;49.928;8.548;2023-03-01T05:51:59;15.85;;;14.52;;
7571;SDS011;3827;49.928;8.548;2023-03-01T05:54:26;17.65;;;16.15;;
7571;SDS011;3827;49.928;8.548;2023-03-01T05:56:53;17.20;;;15.55;;
7571;SDS011;3827;49.928;8.548;2023-03-01T05:59:21;16.63;;;15.23;;
7571;SDS011;3827;49.928;8.548;2023-03-01T06:01:48;17.00;;;15.60;;
7571;SDS011;3827;49.928;8.548;2023-03-01T06:04:15;17.20;;;15.80;;
7571;SDS011;3827;49.928;8.548;2023-03-01T06:06:43;17.27;;;15.77;;
7571;SDS011;3827;49.928;8.548;2023-03-01T06:09:10;16.98;;;15.50;;
7571;SDS011;3827;49.928;8.548;2023-03-01T06:11:37;17.60;;;16.00;;
7571;SDS011;3827;49.928;8.548;2023-03-01T06:14:04;17.40;;;15.88;;
7571;SDS011;3827;49.928;8.548;2023-03-01T06:16:32;17.15;;;15.65;;
7571;SDS011;3827;49.928;8.548;2023-03-01T06:18:59;17.30;;;15.80;;
7571;SDS011;3827;49.928;8.548;2023-03-01T06:21:26;18.00;;;16.50;;
7571;SDS011;3827;49.928;8.548;2023-03-01T06:23:54;17.63;;;16.02;;
7571;SDS011;3827;49.928;8.548;2023-03-01T06:26:21;17.93;;;16.33;;
7571;SDS011;3827;49.928;8.548;2023-03-01T06:28:48;18.30;;;16.70;;
7571;SDS011;3827;49.928;8.548;2023-03-01T06:31:14;18.52;;;16.77;;
7571;SDS011;3827;49.928;8.548;2023-03-01T06:33:41;16.92;;;15.43;;
7571;SDS011;3827;49.928;8.548;2023-03-01T06:36:09;17.17;;;15.68;;
7571;SDS011;3827;49.928;8.548;2023-03-01T06:38:36;18.17;;;16.42;;
7571;SDS011;3827;49.928;8.548;2023-03-01T06:41:04;17.65;;;16.15;;
7571;SDS011;3827;49.928;8.548;2023-03-01T06:43:31;17.33;;;15.82;;
7571;SDS011;3827;49.928;8.548;2023-03-01T06:45:58;18.13;;;16.42;;
7571;SDS011;3827;49.928;8.548;2023-03-01T06:48:25;17.63;;;16.02;;
7571;SDS011;3827;49.928;8.548;2023-03-01T06:50:53;17.80;;;16.20;;
7571;SDS011;3827;49.928;8.548;2023-03-01T06:53:20;17.95;;;16.38;;
7571;SDS011;3827;49.928;8.548;2023-03-01T06:55:46;17.67;;;16.10;;
7571;SDS011;3827;49.928;8.548;2023-03-01T06:58:15;18.48;;;16.73;;
7571;SDS011;3827;49.928;8.548;2023-03-01T07:00:41;17.35;;;15.85;;
7571;SDS011;3827;49.928;8.548;2023-03-01T07:03:09;19.27;;;17.42;;
7571;SDS011;3827;49.928;8.548;2023-03-01T07:05:36;17.75;;;16.05;;
7571;SDS011;3827;49.928;8.548;2023-03-01T07:08:04;17.45;;;15.95;;
7571;SDS011;3827;49.928;8.548;2023-03-01T07:10:31;18.05;;;16.55;;
7571;SDS011;3827;49.928;8.548;2023-03-01T07:12:58;17.75;;;16.23;;
7571;SDS011;3827;49.928;8.548;2023-03-01T07:15:26;18.83;;;16.93;;
7571;SDS011;3827;49.928;8.548;2023-03-01T07:17:55;17.10;;;15.60;;
7571;SDS011;3827;49.928;8.548;2023-03-01T07:20:22;17.63;;;16.00;;
7571;SDS011;3827;49.928;8.548;2023-03-01T07:22:50;17.60;;;16.00;;
7571;SDS011;3827;49.928;8.548;2023-03-01T07:25:17;18.00;;;16.40;;
7571;SDS011;3827;49.928;8.548;2023-03-01T07:27:44;17.33;;;15.73;;
7571;SDS011;3827;49.928;8.548;2023-03-01T07:30:16;16.73;;;15.33;;
7571;SDS011;3827;49.928;8.548;2023-03-01T07:32:44;17.70;;;16.13;;
7571;SDS011;3827;49.928;8.548;2023-03-01T07:35:11;17.73;;;16.10;;
7571;SDS011;3827;49.928;8.548;2023-03-01T07:37:39;17.30;;;15.80;;
7571;SDS011;3827;49.928;8.548;2023-03-01T07:40:07;17.60;;;16.00;;
7571;SDS011;3827;49.928;8.548;2023-03-01T07:42:34;18.00;;;16.38;;
7571;SDS011;3827;49.928;8.548;2023-03-01T07:45:01;18.05;;;16.33;;
7571;SDS011;3827;49.928;8.548;2023-03-01T07:47:28;17.27;;;15.77;;
7571;SDS011;3827;49.928;8.548;2023-03-01T07:49:57;16.75;;;15.27;;
7571;SDS011;3827;49.928;8.548;2023-03-01T07:52:23;16.98;;;15.48;;
7571;SDS011;3827;49.928;8.548;2023-03-01T07:54:50;16.83;;;15.33;;
7571;SDS011;3827;49.928;8.548;2023-03-01T07:57:17;16.40;;;15.00;;
7571;SDS011;3827;49.928;8.548;2023-03-01T07:59:44;16.80;;;15.30;;
7571;SDS011;3827;49.928;8.548;2023-03-01T08:02:11;17.33;;;15.75;;
7571;SDS011;3827;49.928;8.548;2023-03-01T08:04:37;16.88;;;15.38;;
7571;SDS011;3827;49.928;8.548;2023-03-01T08:07:06;16.73;;;15.23;;
7571;SDS011;3827;49.928;8.548;2023-03-01T08:09:34;16.55;;;14.95;;
7571;SDS011;3827;49.928;8.548;2023-03-01T08:12:01;16.40;;;14.80;;
7571;SDS011;3827;49.928;8.548;2023-03-01T08:14:29;16.30;;;14.80;;
7571;SDS011;3827;49.928;8.548;2023-03-01T08:16:56;16.45;;;15.00;;
7571;SDS011;3827;49.928;8.548;2023-03-01T08:19:23;16.35;;;14.65;;
7571;SDS011;3827;49.928;8.548;2023-03-01T08:21:50;16.17;;;14.68;;
7571;SDS011;3827;49.928;8.548;2023-03-01T08:24:18;16.67;;;14.98;;
7571;SDS011;3827;49.928;8.548;2023-03-01T08:26:45;15.05;;;13.75;;
7571;SDS011;3827;49.928;8.548;2023-03-01T08:29:11;15.77;;;14.23;;
7571;SDS011;3827;49.928;8.548;2023-03-01T08:31:39;15.65;;;14.25;;
7571;SDS011;3827;49.928;8.548;2023-03-01T08:34:08;16.23;;;14.73;;
7571;SDS011;3827;49.928;8.548;2023-03-01T08:36:36;15.80;;;14.40;;
7571;SDS011;3827;49.928;8.548;2023-03-01T08:39:05;15.52;;;14.07;;
7571;SDS011;3827;49.928;8.548;2023-03-01T08:41:34;15.57;;;14.18;;
7571;SDS011;3827;49.928;8.548;2023-03-01T08:44:01;15.82;;;14.32;;
7571;SDS011;3827;49.928;8.548;2023-03-01T08:46:28;15.73;;;14.25;;
7571;SDS011;3827;49.928;8.548;2023-03-01T08:48:57;15.38;;;13.93;;
7571;SDS011;3827;49.928;8.548;2023-03-01T08:51:25;15.40;;;14.10;;
7571;SDS011;3827;49.928;8.548;2023-03-01T08:53:52;15.65;;;14.25;;
7571;SDS011;3827;49.928;8.548;2023-03-01T08:56:19;15.35;;;13.90;;
7571;SDS011;3827;49.928;8.548;2023-03-01T08:58:47;16.07;;;14.53;;
7571;SDS011;3827;49.928;8.548;2023-03-01T09:01:15;15.60;;;14.20;;
7571;SDS011;3827;49.928;8.548;2023-03-01T09:03:43;15.00;;;13.60;;
7571;SDS011;3827;49.928;8.548;2023-03-01T09:06:10;15.35;;;13.85;;
7571;SDS011;3827;49.928;8.548;2023-03-01T09:08:38;15.35;;;13.85;;
7571;SDS011;3827;49.928;8.548;2023-03-01T09:11:07;16.02;;;14.57;;
7571;SDS011;3827;49.928;8.548;2023-03-01T09:13:35;16.35;;;14.82;;
7571;SDS011;3827;49.928;8.548;2023-03-01T09:16:04;15.40;;;14.00;;
7571;SDS011;3827;49.928;8.548;2023-03-01T09:18:33;15.32;;;13.80;;
7571;SDS011;3827;49.928;8.548;2023-03-01T09:21:01;15.18;;;13.77;;
7571;SDS011;3827;49.928;8.548;2023-03-01T09:23:32;14.75;;;13.38;;
7571;SDS011;3827;49.928;8.548;2023-03-01T09:25:59;15.02;;;13.57;;
7571;SDS011;3827;49.928;8.548;2023-03-01T09:28:26;14.65;;;13.30;;
7571;SDS011;3827;49.928;8.548;2023-03-01T09:30:52;14.80;;;13.50;;
7571;SDS011;3827;49.928;8.548;2023-03-01T09:33:21;15.10;;;13.70;;
7571;SDS011;3827;49.928;8.548;2023-03-01T09:35:47;14.95;;;13.55;;
7571;SDS011;3827;49.928;8.548;2023-03-01T09:38:14;14.73;;;13.25;;
7571;SDS011;3827;49.928;8.548;2023-03-01T09:40:42;15.57;;;14.10;;
7571;SDS011;3827;49.928;8.548;2023-03-01T09:43:13;15.18;;;13.70;;
7571;SDS011;3827;49.928;8.548;2023-03-01T09:45:44;14.88;;;13.48;;
7571;SDS011;3827;49.928;8.548;2023-03-01T09:48:15;15.20;;;13.70;;
7571;SDS011;3827;49.928;8.548;2023-03-01T09:50:45;15.40;;;14.00;;
7571;SDS011;3827;49.928;8.548;2023-03-01T09:53:13;15.35;;;13.93;;
7571;SDS011;3827;49.928;8.548;2023-03-01T09:55:43;15.27;;;13.88;;
7571;SDS011;3827;49.928;8.548;2023-03-01T09:58:23;15.10;;;13.70;;
7571;SDS011;3827;49.928;8.548;2023-03-01T10:00:58;15.05;;;13.70;;
7571;SDS011;3827;49.928;8.548;2023-03-01T10:03:30;15.18;;;13.77;;
7571;SDS011;3827;49.928;8.548;2023-03-01T10:06:04;15.38;;;13.77;;
7571;SDS011;3827;49.928;8.548;2023-03-01T10:08:36;15.30;;;14.00;;
7571;SDS011;3827;49.928;8.548;2023-03-01T10:11:14;15.52;;;14.02;;
7571;SDS011;3827;49.928;8.548;2023-03-01T10:13:46;14.57;;;13.20;;
7571;SDS011;3827;49.928;8.548;2023-03-01T10:16:20;15.48;;;14.10;;
7571;SDS011;3827;49.928;8.548;2023-03-01T10:18:53;15.07;;;13.75;;
7571;SDS011;3827;49.928;8.548;2023-03-01T10:21:26;15.23;;;13.88;;
7571;SDS011;3827;49.928;8.548;2023-03-01T10:23:56;15.90;;;14.50;;
7571;SDS011;3827;49.928;8.548;2023-03-01T10:26:40;15.15;;;13.77;;
7571;SDS011;3827;49.928;8.548;2023-03-01T10:29:18;15.77;;;14.27;;
7571;SDS011;3827;49.928;8.548;2023-03-01T10:31:50;15.02;;;13.63;;
7571;SDS011;3827;49.928;8.548;2023-03-01T10:34:19;15.13;;;13.73;;
7571;SDS011;3827;49.928;8.548;2023-03-01T10:36:50;15.43;;;14.02;;
7571;SDS011;3827;49.928;8.548;2023-03-01T10:39:19;14.73;;;13.43;;
7571;SDS011;3827;49.928;8.548;2023-03-01T10:41:55;15.27;;;13.85;;
7571;SDS011;3827;49.928;8.548;2023-03-01T10:44:41;15.57;;;14.05;;
7571;SDS011;3827;49.928;8.548;2023-03-01T10:47:16;15.80;;;14.30;;
7571;SDS011;3827;49.928;8.548;2023-03-01T10:49:56;15.32;;;13.90;;
7571;SDS011;3827;49.928;8.548;2023-03-01T10:52:27;14.65;;;13.30;;
7571;SDS011;3827;49.928;8.548;2023-03-01T10:54:57;14.80;;;13.45;;
7571;SDS011;3827;49.928;8.548;2023-03-01T11:00:14;16.08;;;14.57;;
7571;SDS011;3827;49.928;8.548;2023-03-01T11:02:47;15.37;;;13.87;;
7571;SDS011;3827;49.928;8.548;2023-03-01T11:05:17;15.48;;;14.02;;
7571;SDS011;3827;49.928;8.548;2023-03-01T11:07:48;15.88;;;14.30;;
7571;SDS011;3827;49.928;8.548;2023-03-01T11:10:18;15.35;;;13.95;;
7571;SDS011;3827;49.928;8.548;2023-03-01T11:12:47;15.50;;;14.00;;
7571;SDS011;3827;49.928;8.548;2023-03-01T11:15:21;14.88;;;13.57;;
7571;SDS011;3827;49.928;8.548;2023-03-01T11:17:51;15.63;;;14.13;;
7571;SDS011;3827;49.928;8.548;2023-03-01T11:20:20;14.68;;;13.38;;
7571;SDS011;3827;49.928;8.548;2023-03-01T11:22:59;14.90;;;13.40;;
7571;SDS011;3827;49.928;8.548;2023-03-01T11:25:29;14.55;;;13.15;;
7571;SDS011;3827;49.928;8.548;2023-03-01T11:27:59;14.00;;;12.70;;
7571;SDS011;3827;49.928;8.548;2023-03-01T11:30:29;14.38;;;13.05;;
7571;SDS011;3827;49.928;8.548;2023-03-01T11:33:04;14.93;;;13.63;;
7571;SDS011;3827;49.928;8.548;2023-03-01T11:35:42;14.30;;;13.00;;
7571;SDS011;3827;49.928;8.548;2023-03-01T11:38:19;14.30;;;13.10;;
7571;SDS011;3827;49.928;8.548;2023-03-01T11:40:49;14.50;;;13.20;;
7571;SDS011;3827;49.928;8.548;2023-03-01T11:43:26;14.13;;;12.73;;
7571;SDS011;3827;49.928;8.548;2023-03-01T11:46:03;13.70;;;12.50;;
7571;SDS011;3827;49.928;8.548;2023-03-01T11:48:58;13.85;;;12.57;;
7571;SDS011;3827;49.928;8.548;2023-03-01T11:51:48;13.27;;;12.07;;
7571;SDS011;3827;49.928;8.548;2023-03-01T11:54:27;13.27;;;12.07;;
7571;SDS011;3827;49.928;8.548;2023-03-01T11:57:01;12.48;;;11.38;;
7571;SDS011;3827;49.928;8.548;2023-03-01T11:59:45;12.87;;;11.67;;
7571;SDS011;3827;49.928;8.548;2023-03-01T12:08:33;12.65;;;11.45;;
7571;SDS011;3827;49.928;8.548;2023-03-01T12:11:06;12.45;;;11.27;;
7571;SDS011;3827;49.928;8.548;2023-03-01T12:14:00;12.88;;;11.68;;
7571;SDS011;3827;49.928;8.548;2023-03-01T12:16:59;13.05;;;11.40;;
7571;SDS011;3827;49.928;8.548;2023-03-01T12:19:52;12.70;;;11.50;;
7571;SDS011;3827;49.928;8.548;2023-03-01T12:22:44;11.32;;;10.23;;
7571;SDS011;3827;49.928;8.548;2023-03-01T12:25:21;12.18;;;11.07;;
7571;SDS011;3827;49.928;8.548;2023-03-01T12:30:53;11.10;;;10.00;;
7571;SDS011;3827;49.928;8.548;2023-03-01T12:33:41;11.40;;;10.40;;
7571;SDS011;3827;49.928;8.548;2023-03-01T12:36:41;10.27;;;9.27;;
7571;SDS011;3827;49.928;8.548;2023-03-01T12:39:26;10.50;;;9.50;;
7571;SDS011;3827;49.928;8.548;2023-03-01T12:42:16;9.43;;;8.63;;
7571;SDS011;3827;49.928;8.548;2023-03-01T12:45:12;9.88;;;8.95;;
7571;SDS011;3827;49.928;8.548;2023-03-01T12:47:56;10.10;;;8.90;;
7571;SDS011;3827;49.928;8.548;2023-03-01T12:50:37;10.55;;;9.50;;
7571;SDS011;3827;49.928;8.548;2023-03-01T12:53:07;9.80;;;9.00;;
7571;SDS011;3827;49.928;8.548;2023-03-01T12:55:45;9.43;;;8.63;;
7571;SDS011;3827;49.928;8.548;2023-03-01T12:58:17;9.73;;;8.82;;
7571;SDS011;3827;49.928;8.548;2023-03-01T13:00:57;9.77;;;8.93;;
7571;SDS011;3827;49.928;8.548;2023-03-01T13:03:32;9.50;;;8.60;;
7571;SDS011;3827;49.928;8.548;2023-03-01T13:06:11;9.97;;;9.07;;
7571;SDS011;3827;49.928;8.548;2023-03-01T13:08:47;9.73;;;8.80;;
7571;SDS011;3827;49.928;8.548;2023-03-01T13:11:22;9.93;;;8.93;;
7571;SDS011;3827;49.928;8.548;2023-03-01T13:13:49;10.65;;;9.65;;
7571;SDS011;3827;49.928;8.548;2023-03-01T13:16:21;9.43;;;8.63;;
7571;SDS011;3827;49.928;8.548;2023-03-01T13:19:07;10.25;;;9.25;;
7571;SDS011;3827;49.928;8.548;2023-03-01T13:21:37;10.32;;;9.32;;
7571;SDS011;3827;49.928;8.548;2023-03-01T13:24:22;11.38;;;10.27;;
7571;SDS011;3827;49.928;8.548;2023-03-01T13:27:09;10.68;;;9.77;;
7571;SDS011;3827;49.928;8.548;2023-03-01T13:29:50;10.02;;;9.02;;
7571;SDS011;3827;49.928;8.548;2023-03-01T13:32:20;9.45;;;8.65;;
7571;SDS011;3827;49.928;8.548;2023-03-01T13:34:52;9.23;;;8.38;;
7571;SDS011;3827;49.928;8.548;2023-03-01T13:37:22;9.60;;;8.70;;
7571;SDS011;3827;49.928;8.548;2023-03-01T13:39:55;9.77;;;8.90;;
7571;SDS011;3827;49.928;8.548;2023-03-01T13:48:07;9.77;;;8.87;;
7571;SDS011;3827;49.928;8.548;2023-03-01T13:50:38;9.73;;;8.80;;
7571;SDS011;3827;49.928;8.548;2023-03-01T13:53:11;9.50;;;8.68;;
7571;SDS011;3827;49.928;8.548;2023-03-01T13:55:44;9.03;;;8.23;;
7571;SDS011;3827;49.928;8.548;2023-03-01T13:58:16;8.55;;;7.70;;
7571;SDS011;3827;49.928;8.548;2023-03-01T14:00:54;8.32;;;7.53;;
7571;SDS011;3827;49.928;8.548;2023-03-01T14:03:23;8.35;;;7.57;;
7571;SDS011;3827;49.928;8.548;2023-03-01T14:05:57;8.18;;;7.38;;
7571;SDS011;3827;49.928;8.548;2023-03-01T14:08:27;8.90;;;8.20;;
7571;SDS011;3827;49.928;8.548;2023-03-01T14:13:58;8.48;;;7.68;;
7571;SDS011;3827;49.928;8.548;2023-03-01T14:16:37;8.55;;;7.75;;
7571;SDS011;3827;49.928;8.548;2023-03-01T14:19:17;8.48;;;7.68;;
7571;SDS011;3827;49.928;8.548;2023-03-01T14:21:49;7.97;;;7.28;;
7571;SDS011;3827;49.928;8.548;2023-03-01T14:24:27;8.40;;;7.60;;
7571;SDS011;3827;49.928;8.548;2023-03-01T14:26:54;9.15;;;8.35;;
7571;SDS011;3827;49.928;8.548;2023-03-01T14:29:24;9.38;;;8.52;;
7571;SDS011;3827;49.928;8.548;2023-03-01T14:31:53;9.63;;;8.73;;
7571;SDS011;3827;49.928;8.548;2023-03-01T14:34:22;8.93;;;8.13;;
7571;SDS011;3827;49.928;8.548;2023-03-01T14:36:50;11.10;;;8.93;;
7571;SDS011;3827;49.928;8.548;2023-03-01T14:39:18;9.48;;;7.90;;
7571;SDS011;3827;49.928;8.548;2023-03-01T14:41:49;9.00;;;8.10;;
7571;SDS011;3827;49.928;8.548;2023-03-01T14:44:16;9.20;;;8.27;;
7571;SDS011;3827;49.928;8.548;2023-03-01T14:46:51;8.93;;;8.10;;
7571;SDS011;3827;49.928;8.548;2023-03-01T14:49:22;9.20;;;8.30;;
7571;SDS011;3827;49.928;8.548;2023-03-01T14:51:52;8.60;;;7.70;;
7571;SDS011;3827;49.928;8.548;2023-03-01T14:54:23;8.77;;;7.97;;
7571;SDS011;3827;49.928;8.548;2023-03-01T14:56:53;8.30;;;7.50;;
7571;SDS011;3827;49.928;8.548;2023-03-01T14:59:24;7.97;;;7.28;;
7571;SDS011;3827;49.928;8.548;2023-03-01T15:01:51;8.20;;;7.40;;
7571;SDS011;3827;49.928;8.548;2023-03-01T15:04:21;8.18;;;7.38;;
7571;SDS011;3827;49.928;8.548;2023-03-01T15:06:51;7.95;;;7.25;;
7571;SDS011;3827;49.928;8.548;2023-03-01T15:09:18;8.30;;;7.60;;
7571;SDS011;3827;49.928;8.548;2023-03-01T15:11:46;9.32;;;8.52;;
7571;SDS011;3827;49.928;8.548;2023-03-01T15:14:29;8.27;;;7.55;;
7571;SDS011;3827;49.928;8.548;2023-03-01T15:17:15;8.17;;;7.37;;
7571;SDS011;3827;49.928;8.548;2023-03-01T15:19:50;8.23;;;7.45;;
7571;SDS011;3827;49.928;8.548;2023-03-01T15:22:17;9.05;;;8.15;;
7571;SDS011;3827;49.928;8.548;2023-03-01T15:24:46;8.52;;;7.72;;
7571;SDS011;3827;49.928;8.548;2023-03-01T15:27:14;8.55;;;7.35;;
7571;SDS011;3827;49.928;8.548;2023-03-01T15:29:47;8.57;;;7.68;;
7571;SDS011;3827;49.928;8.548;2023-03-01T15:32:26;9.35;;;7.80;;
7571;SDS011;3827;49.928;8.548;2023-03-01T15:34:56;9.65;;;7.30;;